createdAt,value
2022-09-06T00:01:24.848Z,43.62
2022-09-06T00:03:51.642Z,43.63
2022-09-06T00:06:20.089Z,43.71
2022-09-06T00:08:48.535Z,43.77
2022-09-06T00:11:17.330Z,44.06
2022-09-06T00:13:44.765Z,43.97
2022-09-06T00:16:22.456Z,43.96
2022-09-06T00:18:50.208Z,43.90
2022-09-06T00:21:20.511Z,44.26
2022-09-06T00:23:47.429Z,44.15
2022-09-06T00:26:15.108Z,44.18
2022-09-06T00:28:42.524Z,44.19
2022-09-06T00:31:17.561Z,44.27
2022-09-06T00:33:44.656Z,44.00
2022-09-06T00:36:13.134Z,43.93
2022-09-06T00:38:40.220Z,44.04
2022-09-06T00:41:09.056Z,43.86
2022-09-06T00:43:36.025Z,43.86
2022-09-06T00:46:03.572Z,43.86
2022-09-06T00:48:30.978Z,43.67
2022-09-06T00:51:02.068Z,43.99
2022-09-06T00:53:30.661Z,44.06
2022-09-06T00:55:57.966Z,44.10
2022-09-06T00:58:26.570Z,43.97
2022-09-06T01:00:54.165Z,44.01
2022-09-06T01:03:24.341Z,43.90
2022-09-06T01:06:02.934Z,43.91
2022-09-06T01:08:57.573Z,43.72
2022-09-06T01:11:38.800Z,43.66
2022-09-06T01:14:17.439Z,43.47
2022-09-06T01:17:06.433Z,43.38
2022-09-06T01:19:33.118Z,43.64
2022-09-06T01:22:37.576Z,43.46
2022-09-06T01:25:33.331Z,43.53
2022-09-06T01:28:15.215Z,43.20
2022-09-06T01:31:07.252Z,43.26
2022-09-06T01:33:51.140Z,42.99
2022-09-06T01:36:22.835Z,43.36
2022-09-06T01:38:49.704Z,43.16
2022-09-06T01:41:16.491Z,43.13
2022-09-06T01:43:48.630Z,43.25
2022-09-06T01:46:36.366Z,43.23
2022-09-06T01:49:24.535Z,43.13
2022-09-06T01:52:11.516Z,43.00
2022-09-06T01:54:52.697Z,43.10
2022-09-06T01:57:31.610Z,42.95
2022-09-06T02:00:08.599Z,42.89
2022-09-06T02:03:00.958Z,42.87
2022-09-06T02:05:31.397Z,43.19
2022-09-06T02:08:23.554Z,43.29
2022-09-06T02:10:56.602Z,43.00
2022-09-06T02:13:26.675Z,42.98
2022-09-06T02:16:01.646Z,43.27
2022-09-06T02:18:34.276Z,43.13
2022-09-06T02:21:03.115Z,43.17
2022-09-06T02:23:36.310Z,42.97
2022-09-06T02:26:32.747Z,43.08
2022-09-06T02:28:59.899Z,43.02
2022-09-06T02:31:32.095Z,43.14
2022-09-06T02:33:59.026Z,42.97
2022-09-06T02:36:26.240Z,43.08
2022-09-06T02:38:54.425Z,43.02
2022-09-06T02:41:24.055Z,42.88
2022-09-06T02:43:50.853Z,42.64
2022-09-06T02:46:17.652Z,42.69
2022-09-06T02:48:44.420Z,43.04
2022-09-06T02:51:11.264Z,43.58
2022-09-06T02:53:38.061Z,43.53
2022-09-06T02:56:04.890Z,43.12
2022-09-06T02:58:31.824Z,43.16
2022-09-06T03:00:58.821Z,43.27
2022-09-06T03:03:25.871Z,43.21
2022-09-06T03:05:53.990Z,43.10
2022-09-06T03:08:22.363Z,43.06
2022-09-06T03:10:56.845Z,43.28
2022-09-06T03:13:24.510Z,43.36
2022-09-06T03:15:56.063Z,43.24
2022-09-06T03:18:27.781Z,43.22
2022-09-06T03:20:55.492Z,43.17
2022-09-06T03:23:24.706Z,43.08
2022-09-06T03:25:51.581Z,43.01
2022-09-06T03:28:19.039Z,43.03
2022-09-06T03:30:47.606Z,43.16
2022-09-06T03:33:14.753Z,42.96
2022-09-06T03:35:48.644Z,43.03
2022-09-06T03:38:15.373Z,42.95
2022-09-06T03:40:44.934Z,42.99
2022-09-06T03:43:11.625Z,42.99
2022-09-06T03:45:38.491Z,42.98
2022-09-06T03:48:05.370Z,43.17
2022-09-06T03:50:32.160Z,43.07
2022-09-06T03:52:58.929Z,43.26
2022-09-06T03:55:25.703Z,43.00
2022-09-06T03:57:52.428Z,43.24
2022-09-06T04:00:19.343Z,43.17
2022-09-06T04:02:46.165Z,43.31
2022-09-06T04:05:12.993Z,43.37
2022-09-06T04:07:39.776Z,43.51
2022-09-06T04:10:07.108Z,43.27
2022-09-06T04:12:33.850Z,43.38
2022-09-06T04:15:00.872Z,43.69
2022-09-06T04:17:27.663Z,43.21
2022-09-06T04:19:54.388Z,42.97
2022-09-06T04:22:21.124Z,43.25
2022-09-06T04:24:47.870Z,43.30
2022-09-06T04:27:14.685Z,43.28
2022-09-06T04:29:41.460Z,43.15
2022-09-06T04:32:08.292Z,43.25
2022-09-06T04:34:35.079Z,43.16
2022-09-06T04:37:02.195Z,43.31
2022-09-06T04:39:28.986Z,43.60
2022-09-06T04:41:55.688Z,43.15
2022-09-06T04:44:22.395Z,43.35
2022-09-06T04:46:49.123Z,43.40
2022-09-06T04:49:15.934Z,43.56
2022-09-06T04:51:42.646Z,43.47
2022-09-06T04:54:09.343Z,43.59
2022-09-06T04:56:36.112Z,43.69
2022-09-06T04:59:02.904Z,43.75
2022-09-06T05:01:29.696Z,43.66
2022-09-06T05:03:57.240Z,43.75
2022-09-06T05:06:25.421Z,43.35
2022-09-06T05:08:52.812Z,43.01
2022-09-06T05:11:19.765Z,42.39
2022-09-06T05:13:48.329Z,41.94
2022-09-06T05:16:15.242Z,41.94
2022-09-06T05:18:42.419Z,41.40
2022-09-06T05:21:09.205Z,41.20
2022-09-06T05:23:36.195Z,40.85
2022-09-06T05:26:03.091Z,40.13
2022-09-06T05:28:30.089Z,40.20
2022-09-06T05:31:27.663Z,39.17
2022-09-06T05:33:55.761Z,39.56
2022-09-06T05:36:22.795Z,38.89
2022-09-06T05:38:54.023Z,38.96
2022-09-06T05:41:22.200Z,39.04
2022-09-06T05:43:49.240Z,38.80
2022-09-06T05:46:17.047Z,38.67
2022-09-06T05:48:44.276Z,38.45
2022-09-06T05:51:12.970Z,38.83
2022-09-06T05:53:45.177Z,38.72
2022-09-06T05:56:14.585Z,38.53
2022-09-06T05:58:41.382Z,37.83
2022-09-06T06:01:15.494Z,37.58
2022-09-06T06:03:42.633Z,38.20
2022-09-06T06:06:10.126Z,37.39
2022-09-06T06:08:36.940Z,37.29
2022-09-06T06:11:03.704Z,36.81
2022-09-06T06:13:30.493Z,37.16
2022-09-06T06:15:57.282Z,36.17
2022-09-06T06:18:23.998Z,36.52
2022-09-06T06:20:50.716Z,36.49
2022-09-06T06:23:18.089Z,36.12
2022-09-06T06:25:44.916Z,35.38
2022-09-06T06:28:11.650Z,35.55
2022-09-06T06:30:38.439Z,35.47
2022-09-06T06:33:05.199Z,34.85
2022-09-06T06:35:31.995Z,34.48
2022-09-06T06:37:58.770Z,35.11
2022-09-06T06:40:25.593Z,34.95
2022-09-06T06:42:52.315Z,34.84
2022-09-06T06:45:19.069Z,34.33
2022-09-06T06:47:49.901Z,34.40
2022-09-06T06:50:17.059Z,33.57
2022-09-06T06:52:44.008Z,33.24
2022-09-06T06:55:10.784Z,32.62
2022-09-06T06:57:37.549Z,32.21
2022-09-06T07:00:05.215Z,32.47
2022-09-06T07:02:32.028Z,32.32
2022-09-06T07:04:58.923Z,31.73
2022-09-06T07:12:42.725Z,31.22
2022-09-06T07:15:09.693Z,31.79
2022-09-06T07:17:36.445Z,31.43
2022-09-06T07:20:18.914Z,31.07
2022-09-06T07:22:45.748Z,31.57
2022-09-06T07:25:17.631Z,31.46
2022-09-06T07:27:48.150Z,30.72
2022-09-06T07:30:19.928Z,30.80
2022-09-06T07:32:46.868Z,30.61
2022-09-06T07:35:13.731Z,30.32
2022-09-06T07:37:40.748Z,30.50
2022-09-06T07:40:08.182Z,30.27
2022-09-06T07:42:36.298Z,30.70
2022-09-06T07:45:04.673Z,30.50
2022-09-06T07:55:38.538Z,29.57
2022-09-06T07:58:05.357Z,29.85
2022-09-06T08:00:32.212Z,29.25
2022-09-06T08:02:59.587Z,29.46
2022-09-06T08:11:00.132Z,29.30
2022-09-06T08:13:27.408Z,29.63
2022-09-06T08:16:08.540Z,29.68
2022-09-06T08:18:36.950Z,29.16
2022-09-06T08:21:12.979Z,29.30
2022-09-06T08:23:52.235Z,29.49
2022-09-06T08:26:20.788Z,28.89
2022-09-06T08:28:47.753Z,29.10
2022-09-06T08:31:17.329Z,28.78
2022-09-06T08:33:44.415Z,29.54
2022-09-06T08:36:12.073Z,29.41
2022-09-06T08:38:39.337Z,29.01
2022-09-06T08:41:16.825Z,28.32
2022-09-06T08:47:13.181Z,28.73
2022-09-06T08:49:48.430Z,29.08
2022-09-06T08:52:22.538Z,28.98
2022-09-06T08:55:01.264Z,29.07
2022-09-06T08:57:43.323Z,28.84
2022-09-06T09:00:12.905Z,28.47
2022-09-06T09:02:49.265Z,29.05
2022-09-06T09:05:24.664Z,28.85
2022-09-06T09:08:03.115Z,29.46
2022-09-06T09:10:35.202Z,28.93
2022-09-06T09:13:07.703Z,29.17
2022-09-06T09:15:40.258Z,29.23
2022-09-06T09:18:07.853Z,29.23
2022-09-06T09:20:34.632Z,29.13
2022-09-06T09:23:02.207Z,29.42
2022-09-06T09:25:32.683Z,29.29
2022-09-06T09:28:00.217Z,29.35
2022-09-06T09:33:35.946Z,29.48
2022-09-06T09:36:08.354Z,29.12
2022-09-06T09:38:46.370Z,29.33
2022-09-06T09:41:32.631Z,29.37
2022-09-06T09:44:16.186Z,29.25
2022-09-06T09:46:43.471Z,29.35
2022-09-06T09:49:14.360Z,29.47
2022-09-06T09:52:05.155Z,29.70
2022-09-06T09:54:36.293Z,29.67
2022-09-06T09:57:11.907Z,29.37
2022-09-06T09:59:58.748Z,29.81
2022-09-06T10:02:34.463Z,29.58
2022-09-06T10:05:09.833Z,29.93
2022-09-06T10:07:43.878Z,29.64
2022-09-06T10:10:21.080Z,29.69
2022-09-06T10:12:48.505Z,29.73
2022-09-06T10:15:39.073Z,29.47
2022-09-06T10:18:06.546Z,28.76
2022-09-06T10:20:45.944Z,28.85
2022-09-06T10:26:32.902Z,28.68
2022-09-06T10:29:07.652Z,29.06
2022-09-06T10:31:46.219Z,28.70
2022-09-06T10:34:40.981Z,28.42
2022-09-06T10:37:25.537Z,28.43
2022-09-06T10:40:01.115Z,28.72
2022-09-06T10:42:48.395Z,28.58
2022-09-06T10:45:56.673Z,28.98
2022-09-06T10:48:38.669Z,28.64
2022-09-06T10:51:34.859Z,28.82
2022-09-06T10:54:08.401Z,28.91
2022-09-06T10:56:39.437Z,28.72
2022-09-06T10:59:39.873Z,28.92
2022-09-06T11:02:26.742Z,29.12
2022-09-06T11:10:38.380Z,28.55
2022-09-06T11:13:17.607Z,28.87
2022-09-06T11:15:48.024Z,28.71
2022-09-06T11:18:29.934Z,28.83
2022-09-06T11:21:02.747Z,28.76
2022-09-06T11:23:45.199Z,28.04
2022-09-06T11:26:17.574Z,26.93
2022-09-06T11:28:48.662Z,27.20
2022-09-06T11:34:22.574Z,27.85
2022-09-06T11:36:52.387Z,27.44
2022-09-06T11:42:44.341Z,27.47
2022-09-06T11:45:11.239Z,27.46
2022-09-06T11:47:46.351Z,28.19
2022-09-06T11:50:22.171Z,27.70
2022-09-06T11:52:55.667Z,27.67
2022-09-06T11:55:40.292Z,27.78
2022-09-06T11:58:18.944Z,27.45
2022-09-06T12:00:47.105Z,27.51
2022-09-06T12:07:03.428Z,26.83
2022-09-06T12:09:31.683Z,27.31
2022-09-06T12:11:59.786Z,27.44
2022-09-06T12:14:33.812Z,27.49
2022-09-06T12:17:00.547Z,28.07
2022-09-06T12:19:50.082Z,28.72
2022-09-06T12:22:28.824Z,29.03
2022-09-06T12:24:59.510Z,29.02
2022-09-06T12:27:27.471Z,28.64
2022-09-06T12:30:07.596Z,28.66
2022-09-06T12:32:43.465Z,28.52
2022-09-06T12:38:14.223Z,28.65
2022-09-06T12:40:46.580Z,28.44
2022-09-06T12:43:15.461Z,28.51
2022-09-06T12:45:51.212Z,28.39
2022-09-06T12:48:29.704Z,28.07
2022-09-06T12:51:05.026Z,27.64
2022-09-06T12:53:32.814Z,28.12
2022-09-06T12:56:08.467Z,27.70
2022-09-06T12:58:36.157Z,26.93
2022-09-06T13:01:32.302Z,27.05
2022-09-06T13:04:09.813Z,27.54
2022-09-06T13:06:42.913Z,27.47
2022-09-06T13:09:14.236Z,27.40
2022-09-06T13:11:44.851Z,27.42
2022-09-06T13:14:27.506Z,27.67
2022-09-06T13:16:55.620Z,27.63
2022-09-06T13:19:40.317Z,27.63
2022-09-06T13:22:09.834Z,27.50
2022-09-06T13:24:36.506Z,26.75
2022-09-06T13:27:25.297Z,27.04
2022-09-06T13:30:04.358Z,27.05
2022-09-06T13:32:31.713Z,26.92
2022-09-06T13:34:59.965Z,27.15
2022-09-06T13:37:32.081Z,27.20
2022-09-06T13:39:59.008Z,28.22
2022-09-06T13:42:36.442Z,28.40
2022-09-06T13:45:27.795Z,28.74
2022-09-06T13:48:03.477Z,28.96
2022-09-06T13:50:41.852Z,29.08
2022-09-06T13:53:08.643Z,29.10
2022-09-06T13:55:35.400Z,29.10
2022-09-06T13:58:02.377Z,28.82
2022-09-06T14:00:29.157Z,28.87
2022-09-06T14:02:56.094Z,28.80
2022-09-06T14:05:22.861Z,28.90
2022-09-06T14:07:49.702Z,28.87
2022-09-06T14:10:16.497Z,28.91
2022-09-06T14:12:43.511Z,29.07
2022-09-06T14:15:10.306Z,28.77
2022-09-06T14:17:37.082Z,28.87
2022-09-06T14:20:04.433Z,28.88
2022-09-06T14:22:31.199Z,28.46
2022-09-06T14:24:57.962Z,28.70
2022-09-06T14:27:24.930Z,28.80
2022-09-06T14:29:51.678Z,28.68
2022-09-06T14:32:22.335Z,29.08
2022-09-06T14:34:49.557Z,28.52
2022-09-06T14:37:16.329Z,28.70
2022-09-06T14:39:43.243Z,29.01
2022-09-06T14:42:10.134Z,29.26
2022-09-06T14:44:36.850Z,28.96
2022-09-06T14:47:03.668Z,28.91
2022-09-06T14:49:30.426Z,29.28
2022-09-06T14:51:57.201Z,29.49
2022-09-06T14:54:28.538Z,29.24
2022-09-06T14:56:56.027Z,29.45
2022-09-06T14:59:22.806Z,29.72
2022-09-06T15:01:49.713Z,29.68
2022-09-06T15:04:16.700Z,29.63
2022-09-06T15:06:43.489Z,30.11
2022-09-06T15:09:10.264Z,29.90
2022-09-06T15:11:38.817Z,29.71
2022-09-06T15:14:13.798Z,30.19
2022-09-06T15:16:40.700Z,30.33
2022-09-06T15:19:07.735Z,30.53
2022-09-06T15:21:34.914Z,30.61
2022-09-06T15:24:02.305Z,30.92
2022-09-06T15:26:29.932Z,30.75
2022-09-06T15:28:56.723Z,30.72
2022-09-06T15:31:23.685Z,30.68
2022-09-06T15:33:51.681Z,31.15
2022-09-06T15:36:18.972Z,30.82
2022-09-06T15:38:48.802Z,31.23
2022-09-06T15:41:26.265Z,31.34
2022-09-06T15:43:56.114Z,31.62
2022-09-06T15:46:45.049Z,31.63
2022-09-06T15:49:15.733Z,31.92
2022-09-06T15:51:42.646Z,31.53
2022-09-06T15:54:10.958Z,31.66
2022-09-06T15:56:38.342Z,32.17
2022-09-06T15:59:05.152Z,32.10
2022-09-06T16:01:31.928Z,32.47
2022-09-06T16:03:59.017Z,32.50
2022-09-06T16:06:28.390Z,32.80
2022-09-06T16:09:05.466Z,33.21
2022-09-06T16:11:33.419Z,33.06
2022-09-06T16:14:00.179Z,32.91
2022-09-06T16:16:27.036Z,33.29
2022-09-06T16:18:53.829Z,33.13
2022-09-06T16:21:26.316Z,33.60
2022-09-06T16:23:58.597Z,33.68
2022-09-06T16:26:27.723Z,33.67
2022-09-06T16:28:54.958Z,33.89
2022-09-06T16:31:22.460Z,33.95
2022-09-06T16:33:50.014Z,33.81
2022-09-06T16:36:18.495Z,33.79
2022-09-06T16:38:45.950Z,34.10
2022-09-06T16:41:16.642Z,34.20
2022-09-06T16:43:44.330Z,34.26
2022-09-06T16:46:11.934Z,34.15
2022-09-06T16:48:39.147Z,34.06
2022-09-06T16:51:25.689Z,34.05
2022-09-06T16:53:53.278Z,34.38
2022-09-06T16:56:23.083Z,34.44
2022-09-06T16:58:52.466Z,34.52
2022-09-06T17:01:20.449Z,34.55
2022-09-06T17:03:47.623Z,34.80
2022-09-06T17:06:15.349Z,35.16
2022-09-06T17:08:42.323Z,35.25
2022-09-06T17:11:12.752Z,35.32
2022-09-06T17:13:39.697Z,35.15
2022-09-06T17:16:06.919Z,35.53
2022-09-06T17:18:33.809Z,35.67
2022-09-06T17:21:01.539Z,35.50
2022-09-06T17:23:28.392Z,35.48
2022-09-06T17:25:55.127Z,35.85
2022-09-06T17:28:22.427Z,36.08
2022-09-06T17:30:50.109Z,36.45
2022-09-06T17:33:16.979Z,36.73
2022-09-06T17:35:47.550Z,36.78
2022-09-06T17:38:15.151Z,36.86
2022-09-06T17:40:42.303Z,36.73
2022-09-06T17:43:09.784Z,36.36
2022-09-06T17:45:41.950Z,36.82
2022-09-06T17:48:09.092Z,36.31
2022-09-06T17:50:35.911Z,36.71
2022-09-06T17:53:02.893Z,36.58
2022-09-06T17:55:29.744Z,36.82
2022-09-06T17:57:56.996Z,36.74
2022-09-06T18:00:25.619Z,36.92
2022-09-06T18:02:52.846Z,37.15
2022-09-06T18:05:19.818Z,37.32
2022-09-06T18:07:46.645Z,37.17
2022-09-06T18:10:14.179Z,37.45
2022-09-06T18:12:42.594Z,37.40
2022-09-06T18:15:10.298Z,37.37
2022-09-06T18:17:37.042Z,37.50
2022-09-06T18:20:05.004Z,37.61
2022-09-06T18:22:31.812Z,37.15
2022-09-06T18:24:58.660Z,37.46
2022-09-06T18:27:25.559Z,37.72
2022-09-06T18:29:52.383Z,37.55
2022-09-06T18:32:19.195Z,37.58
2022-09-06T18:34:46.104Z,37.37
2022-09-06T18:37:13.771Z,37.57
2022-09-06T18:39:40.640Z,37.40
2022-09-06T18:42:07.669Z,37.77
2022-09-06T18:44:35.032Z,37.70
2022-09-06T18:47:03.899Z,37.39
2022-09-06T18:49:30.840Z,37.91
2022-09-06T18:51:57.557Z,37.95
2022-09-06T18:54:24.350Z,38.15
2022-09-06T18:56:51.203Z,37.95
2022-09-06T18:59:18.576Z,38.06
2022-09-06T19:01:45.536Z,38.38
2022-09-06T19:04:13.046Z,38.37
2022-09-06T19:06:41.945Z,38.87
2022-09-06T19:09:12.456Z,38.78
2022-09-06T19:11:39.646Z,38.98
2022-09-06T19:14:06.551Z,38.74
2022-09-06T19:16:33.407Z,38.55
2022-09-06T19:19:09.769Z,38.56
2022-09-06T19:21:41.416Z,38.46
2022-09-06T19:24:10.611Z,38.55
2022-09-06T19:26:39.597Z,38.71
2022-09-06T19:29:08.958Z,38.92
2022-09-06T19:31:37.756Z,38.94
2022-09-06T19:34:05.466Z,39.20
2022-09-06T19:36:32.505Z,39.11
2022-09-06T19:39:05.810Z,39.41
2022-09-06T19:44:01.121Z,39.84
2022-09-06T19:46:28.222Z,39.49
2022-09-06T19:48:55.621Z,39.29
2022-09-06T19:51:22.944Z,40.03
2022-09-06T19:53:52.724Z,39.55
2022-09-06T19:56:23.243Z,40.37
2022-09-06T19:58:58.068Z,39.90
2022-09-06T20:01:26.726Z,40.05
2022-09-06T20:03:53.588Z,40.00
2022-09-06T20:06:20.641Z,40.54
2022-09-06T20:08:50.791Z,40.03
2022-09-06T20:11:18.901Z,40.39
2022-09-06T20:13:45.926Z,40.91
2022-09-06T20:16:13.318Z,41.23
2022-09-06T20:18:40.492Z,40.57
2022-09-06T20:21:07.950Z,40.75
2022-09-06T20:23:35.695Z,40.66
2022-09-06T20:26:05.639Z,40.77
2022-09-06T20:28:33.281Z,40.66
2022-09-06T20:31:08.117Z,41.23
2022-09-06T20:33:35.816Z,41.64
2022-09-06T20:36:05.580Z,41.27
2022-09-06T20:38:35.323Z,41.02
2022-09-06T20:41:06.564Z,41.21
2022-09-06T20:43:34.632Z,41.78
2022-09-06T20:46:02.217Z,41.42
2022-09-06T20:48:31.603Z,41.53
2022-09-06T20:51:03.146Z,41.63
2022-09-06T20:53:31.125Z,41.55
2022-09-06T20:56:05.621Z,41.98
2022-09-06T20:58:33.326Z,41.57
2022-09-06T21:01:05.383Z,41.84
2022-09-06T21:03:32.425Z,41.75
2022-09-06T21:05:59.170Z,42.18
2022-09-06T21:08:26.221Z,42.38
2022-09-06T21:10:59.720Z,41.91
2022-09-06T21:13:26.544Z,41.88
2022-09-06T21:15:53.310Z,42.02
2022-09-06T21:18:20.330Z,42.04
2022-09-06T21:20:57.948Z,41.91
2022-09-06T21:23:26.847Z,42.32
2022-09-06T21:25:54.504Z,42.95
2022-09-06T21:28:21.651Z,42.39
2022-09-06T21:31:07.375Z,42.73
2022-09-06T21:33:38.761Z,42.82
2022-09-06T21:36:07.851Z,43.01
2022-09-06T21:38:36.259Z,43.09
2022-09-06T21:41:05.059Z,43.28
2022-09-06T21:43:32.694Z,42.92
2022-09-06T21:46:08.991Z,42.91
2022-09-06T21:48:39.904Z,42.91
2022-09-06T21:51:07.959Z,43.43
2022-09-06T21:53:35.967Z,43.24
2022-09-06T21:56:04.577Z,43.15
2022-09-06T21:58:31.890Z,43.36
2022-09-06T22:01:00.274Z,43.46
2022-09-06T22:03:29.042Z,43.31
2022-09-06T22:05:56.619Z,43.21
2022-09-06T22:08:24.660Z,43.46
2022-09-06T22:10:51.966Z,43.19
2022-09-06T22:13:20.423Z,43.36
2022-09-06T22:15:47.409Z,43.67
2022-09-06T22:18:14.287Z,43.77
2022-09-06T22:20:41.447Z,43.55
2022-09-06T22:23:09.522Z,43.73
2022-09-06T22:25:36.267Z,43.83
2022-09-06T22:28:03.112Z,43.82
2022-09-06T22:30:29.978Z,43.75
2022-09-06T22:32:56.714Z,43.82
2022-09-06T22:35:23.433Z,43.64
2022-09-06T22:37:51.094Z,44.05
2022-09-06T22:40:17.933Z,44.31
2022-09-06T22:42:44.677Z,44.01
2022-09-06T22:45:11.617Z,43.88
2022-09-06T22:47:38.415Z,44.23
2022-09-06T22:50:05.742Z,44.13
2022-09-06T22:52:32.571Z,44.12
2022-09-06T22:54:59.294Z,44.21
2022-09-06T22:57:26.993Z,44.62
2022-09-06T22:59:53.844Z,44.29
2022-09-06T23:02:20.579Z,44.43
2022-09-06T23:04:47.469Z,44.38
2022-09-06T23:07:14.454Z,44.38
2022-09-06T23:09:41.190Z,44.43
2022-09-06T23:12:08.006Z,44.16
2022-09-06T23:14:34.788Z,44.43
2022-09-06T23:17:01.540Z,44.77
2022-09-06T23:19:28.363Z,44.36
2022-09-06T23:21:55.208Z,44.34
2022-09-06T23:24:22.048Z,44.44
2022-09-06T23:26:48.870Z,44.46
2022-09-06T23:29:15.652Z,44.18
2022-09-06T23:31:42.528Z,44.30
2022-09-06T23:34:09.580Z,44.09
2022-09-06T23:36:36.618Z,44.27
2022-09-06T23:39:03.813Z,44.26
2022-09-06T23:41:30.858Z,44.20
2022-09-06T23:43:57.721Z,44.63
2022-09-06T23:46:24.598Z,44.52
2022-09-06T23:48:51.498Z,44.49
2022-09-06T23:51:18.668Z,44.59
2022-09-06T23:53:45.739Z,44.35
2022-09-06T23:56:12.627Z,44.36
2022-09-06T23:58:40.013Z,44.76
